Main page


Airports :

Oxford, England

Oxford Airport

latitude: 51-50-13N, longitude: 1-19-12W, elevation: 82 m

Current weather observation

The report was made 48 minutes ago, at 22:20 UTC
Wind 11 kt from the South/Southwest
Temperature 6°C
Humidity 81%
Pressure 1010 hPa
Visibility 10 km or more
Scattered clouds at a height of 2000 ft
Broken clouds at a height of 2800 ft
Overcast at a height of 3200 ft

METAR: EGTK 222220Z 20011KT 9999 SCT020 BKN028 OVC032 06/03 Q1010

Time: 23:08 (23:08 UTC)


The report was made 3 hours and 15 minutes ago, at 19:53 UTC
Forecast valid from 22 at 21 UTC to 22 at 23 UTC
Wind 10 kt from the South
Visibility 10 km or more
Broken clouds at a height of 2500 ft

TAF: EGTK 221953Z 2221/2223 19010KT 9999 BKN025

Weather observations and forecasts of more than 4000 airports (METAR and TAF reports).

The available stations are represented by yellow and red dots on the map.

Hover mouse over dot to see the name of the station.

Then click to see weather observations and forecasts.

To change the map : click on the green buttons with a black cross to zoom in, on the green button with a dash to zoom out, or on the green arrows for adjacent maps.